sensor_id;sensor_type;location;lat;lon;timestamp;pressure;altitude;pressure_sealevel;temperature;humidity
17950;BME280;9100;48.700;9.316;2023-06-22T00:00:30;97770.4;;;22.89;100
17950;BME280;9100;48.700;9.316;2023-06-22T00:01:07;97772.7;;;22.91;100
17950;BME280;9100;48.700;9.316;2023-06-22T00:01:30;97766.7;;;22.9;100
17950;BME280;9100;48.700;9.316;2023-06-22T00:02:30;97743.8;;;22.82;100
17950;BME280;9100;48.700;9.316;2023-06-22T00:03:30;97761.5;;;22.9;100
17950;BME280;9100;48.700;9.316;2023-06-22T00:04:30;97767;;;22.89;100
17950;BME280;9100;48.700;9.316;2023-06-22T00:05:30;97756.8;;;22.87;100
17950;BME280;9100;48.700;9.316;2023-06-22T00:06:07;97761.2;;;22.87;100
17950;BME280;9100;48.700;9.316;2023-06-22T00:06:30;97765.4;;;22.88;100
17950;BME280;9100;48.700;9.316;2023-06-22T00:07:30;97761.2;;;22.87;100
17950;BME280;9100;48.700;9.316;2023-06-22T00:08:30;97770.1;;;22.86;100
17950;BME280;9100;48.700;9.316;2023-06-22T00:09:30;97761.8;;;22.84;100
17950;BME280;9100;48.700;9.316;2023-06-22T00:10:30;97758.6;;;22.82;100
17950;BME280;9100;48.700;9.316;2023-06-22T00:11:07;97760.5;;;22.81;100
17950;BME280;9100;48.700;9.316;2023-06-22T00:11:30;97755.2;;;22.81;100
17950;BME280;9100;48.700;9.316;2023-06-22T00:12:30;97756.3;;;22.8;100
17950;BME280;9100;48.700;9.316;2023-06-22T00:13:30;97728.5;;;22.59;100
17950;BME280;9100;48.700;9.316;2023-06-22T00:14:30;97758.3;;;22.78;100
17950;BME280;9100;48.700;9.316;2023-06-22T00:15:30;97759.6;;;22.76;100
17950;BME280;9100;48.700;9.316;2023-06-22T00:16:07;97756.2;;;22.75;100
17950;BME280;9100;48.700;9.316;2023-06-22T00:16:31;97758.8;;;22.75;100
17950;BME280;9100;48.700;9.316;2023-06-22T00:17:30;97749.5;;;22.74;100
17950;BME280;9100;48.700;9.316;2023-06-22T00:18:30;97752.3;;;22.73;100
17950;BME280;9100;48.700;9.316;2023-06-22T00:19:30;97748.90000000001;;;22.72;100
17950;BME280;9100;48.700;9.316;2023-06-22T00:20:30;97757.8;;;22.71;100
17950;BME280;9100;48.700;9.316;2023-06-22T00:21:08;97752.8;;;22.69;100
17950;BME280;9100;48.700;9.316;2023-06-22T00:21:30;97761.40000000001;;;22.7;100
17950;BME280;9100;48.700;9.316;2023-06-22T00:22:30;97758.3;;;22.68;100
17950;BME280;9100;48.700;9.316;2023-06-22T00:23:30;97763.5;;;22.68;100
17950;BME280;9100;48.700;9.316;2023-06-22T00:24:30;97757.8;;;22.66;100
17950;BME280;9100;48.700;9.316;2023-06-22T00:25:30;97762.40000000001;;;22.64;100
17950;BME280;9100;48.700;9.316;2023-06-22T00:26:08;97759.79999999999;;;22.64;100
17950;BME280;9100;48.700;9.316;2023-06-22T00:26:30;97759;;;22.63;100
17950;BME280;9100;48.700;9.316;2023-06-22T00:27:30;97760.90000000001;;;22.63;100
17950;BME280;9100;48.700;9.316;2023-06-22T00:28:30;97761.90000000001;;;22.62;100
17950;BME280;9100;48.700;9.316;2023-06-22T00:29:30;97767.1;;;22.62;100
17950;BME280;9100;48.700;9.316;2023-06-22T00:30:31;97763.2;;;22.59;100
17950;BME280;9100;48.700;9.316;2023-06-22T00:31:07;97765;;;22.59;100
17950;BME280;9100;48.700;9.316;2023-06-22T00:31:30;97758.7;;;22.6;100
17950;BME280;9100;48.700;9.316;2023-06-22T00:32:30;97759;;;22.58;100
17950;BME280;9100;48.700;9.316;2023-06-22T00:33:30;97763.2;;;22.59;100
17950;BME280;9100;48.700;9.316;2023-06-22T00:34:30;97763.9;;;22.6;100
17950;BME280;9100;48.700;9.316;2023-06-22T00:35:30;97763.4;;;22.58;100
17950;BME280;9100;48.700;9.316;2023-06-22T00:36:07;97761.90000000001;;;22.57;100
17950;BME280;9100;48.700;9.316;2023-06-22T00:36:30;97763.4;;;22.58;100
17950;BME280;9100;48.700;9.316;2023-06-22T00:37:30;97758.5;;;22.56;100
17950;BME280;9100;48.700;9.316;2023-06-22T00:38:30;97760.79999999999;;;22.58;100
17950;BME280;9100;48.700;9.316;2023-06-22T00:39:30;97760.29999999999;;;22.56;100
17950;BME280;9100;48.700;9.316;2023-06-22T00:40:31;97758.7;;;22.55;100
17950;BME280;9100;48.700;9.316;2023-06-22T00:41:07;97762.40000000001;;;22.54;100
17950;BME280;9100;48.700;9.316;2023-06-22T00:41:30;97756.1;;;22.55;100
17950;BME280;9100;48.700;9.316;2023-06-22T00:42:30;97756.1;;;22.55;100
17950;BME280;9100;48.700;9.316;2023-06-22T00:43:30;97756.4;;;22.53;100
17950;BME280;9100;48.700;9.316;2023-06-22T00:44:30;97749.59999999999;;;22.52;100
17950;BME280;9100;48.700;9.316;2023-06-22T00:45:30;97743.6;;;22.52;100
17950;BME280;9100;48.700;9.316;2023-06-22T00:46:07;97742;;;22.51;100
17950;BME280;9100;48.700;9.316;2023-06-22T00:46:30;97747.7;;;22.53;100
17950;BME280;9100;48.700;9.316;2023-06-22T00:47:30;97736.8;;;22.51;100
17950;BME280;9100;48.700;9.316;2023-06-22T00:48:30;97743.6;;;22.52;100
17950;BME280;9100;48.700;9.316;2023-06-22T00:49:30;97734.40000000001;;;22.49;100
17950;BME280;9100;48.700;9.316;2023-06-22T00:50:31;97732.9;;;22.48;100
17950;BME280;9100;48.700;9.316;2023-06-22T00:51:07;97731.3;;;22.47;100
17950;BME280;9100;48.700;9.316;2023-06-22T00:51:30;97729.5;;;22.48;100
17950;BME280;9100;48.700;9.316;2023-06-22T00:52:30;97733.90000000001;;;22.47;100
17950;BME280;9100;48.700;9.316;2023-06-22T00:53:30;97721.1;;;22.46;100
17950;BME280;9100;48.700;9.316;2023-06-22T00:54:30;97729;;;22.46;100
17950;BME280;9100;48.700;9.316;2023-06-22T00:55:30;97739.4;;;22.46;100
17950;BME280;9100;48.700;9.316;2023-06-22T00:56:08;97744.6;;;22.46;100
17950;BME280;9100;48.700;9.316;2023-06-22T00:56:30;97745.4;;;22.46;100
17950;BME280;9100;48.700;9.316;2023-06-22T00:57:30;97746.7;;;22.49;100
17950;BME280;9100;48.700;9.316;2023-06-22T00:58:30;97750.9;;;22.5;100
17950;BME280;9100;48.700;9.316;2023-06-22T00:59:30;97749.3;;;22.49;100
17950;BME280;9100;48.700;9.316;2023-06-22T01:00:30;97745.1;;;22.48;100
17950;BME280;9100;48.700;9.316;2023-06-22T01:01:07;97744.4;;;22.47;100
17950;BME280;9100;48.700;9.316;2023-06-22T01:01:30;97741;;;22.47;100
17950;BME280;9100;48.700;9.316;2023-06-22T01:02:30;97746.7;;;22.49;100
17950;BME280;9100;48.700;9.316;2023-06-22T01:03:30;97755.3;;;22.49;100
17950;BME280;9100;48.700;9.316;2023-06-22T01:04:34;97759.7;;;22.49;100
17950;BME280;9100;48.700;9.316;2023-06-22T01:05:30;97767.5;;;22.49;100
17950;BME280;9100;48.700;9.316;2023-06-22T01:06:08;97766.5;;;22.5;100
17950;BME280;9100;48.700;9.316;2023-06-22T01:06:32;97762.90000000001;;;22.51;100
17950;BME280;9100;48.700;9.316;2023-06-22T01:07:31;97767;;;22.52;100
17950;BME280;9100;48.700;9.316;2023-06-22T01:08:31;97762.40000000001;;;22.54;100
17950;BME280;9100;48.700;9.316;2023-06-22T01:09:31;97760.79999999999;;;22.53;100
17950;BME280;9100;48.700;9.316;2023-06-22T01:10:31;97758.4;;;22.51;100
17950;BME280;9100;48.700;9.316;2023-06-22T01:11:08;97756.1;;;22.5;100
17950;BME280;9100;48.700;9.316;2023-06-22T01:11:32;97756.1;;;22.5;100
17950;BME280;9100;48.700;9.316;2023-06-22T01:12:31;97756.1;;;22.5;100
17950;BME280;9100;48.700;9.316;2023-06-22T01:13:33;97761;;;22.46;100
17950;BME280;9100;48.700;9.316;2023-06-22T01:14:32;97772.2;;;22.47;100
17950;BME280;9100;48.700;9.316;2023-06-22T01:15:31;97779.5;;;22.45;100
17950;BME280;9100;48.700;9.316;2023-06-22T01:16:09;97788.09999999999;;;22.45;100
17950;BME280;9100;48.700;9.316;2023-06-22T01:16:31;97792.3;;;22.46;100
17950;BME280;9100;48.700;9.316;2023-06-22T01:17:30;97793.9;;;22.47;100
17950;BME280;9100;48.700;9.316;2023-06-22T01:18:30;97804;;;22.49;100
17950;BME280;9100;48.700;9.316;2023-06-22T01:19:35;97791;;;22.49;100
17950;BME280;9100;48.700;9.316;2023-06-22T01:20:30;97785.79999999999;;;22.49;100
17950;BME280;9100;48.700;9.316;2023-06-22T01:21:08;97782.1;;;22.5;100
17950;BME280;9100;48.700;9.316;2023-06-22T01:21:30;97783.7;;;22.51;100
17950;BME280;9100;48.700;9.316;2023-06-22T01:22:30;97776.9;;;22.5;100
17950;BME280;9100;48.700;9.316;2023-06-22T01:23:33;97778.5;;;22.51;100
17950;BME280;9100;48.700;9.316;2023-06-22T01:24:32;97781.3;;;22.49;100
17950;BME280;9100;48.700;9.316;2023-06-22T01:25:31;97781.6;;;22.48;100
17950;BME280;9100;48.700;9.316;2023-06-22T01:26:08;97787.09999999999;;;22.46;100
17950;BME280;9100;48.700;9.316;2023-06-22T01:26:37;97791.5;;;22.46;100
17950;BME280;9100;48.700;9.316;2023-06-22T01:27:33;97793.9;;;22.47;100
17950;BME280;9100;48.700;9.316;2023-06-22T01:28:46;97791.2;;;22.47;100
17950;BME280;9100;48.700;9.316;2023-06-22T01:29:30;97792;;;22.48;100
17950;BME280;9100;48.700;9.316;2023-06-22T01:30:30;97783.4;;;22.47;100
17950;BME280;9100;48.700;9.316;2023-06-22T01:31:08;97781.9;;;22.46;100
17950;BME280;9100;48.700;9.316;2023-06-22T01:31:30;97772.2;;;22.47;100
17950;BME280;9100;48.700;9.316;2023-06-22T01:32:30;97768.8;;;22.46;100
17950;BME280;9100;48.700;9.316;2023-06-22T01:33:31;97762.3;;;22.44;100
17950;BME280;9100;48.700;9.316;2023-06-22T01:34:30;97756;;;22.4;100
17950;BME280;9100;48.700;9.316;2023-06-22T01:35:30;97760.5;;;22.39;100
17950;BME280;9100;48.700;9.316;2023-06-22T01:36:07;97763.3;;;22.38;100
17950;BME280;9100;48.700;9.316;2023-06-22T01:36:30;97763.3;;;22.38;100
17950;BME280;9100;48.700;9.316;2023-06-22T01:37:30;97773.7;;;22.38;100
17950;BME280;9100;48.700;9.316;2023-06-22T01:38:30;97769.3;;;22.38;100
17950;BME280;9100;48.700;9.316;2023-06-22T01:39:30;97777.9;;;22.39;100
17950;BME280;9100;48.700;9.316;2023-06-22T01:40:30;97738.2;;;22.16;100
17950;BME280;9100;48.700;9.316;2023-06-22T01:41:07;97774.5;;;22.38;100
17950;BME280;9100;48.700;9.316;2023-06-22T01:41:32;97777.70000000001;;;22.4;100
17950;BME280;9100;48.700;9.316;2023-06-22T01:42:30;97766.5;;;22.4;100
17950;BME280;9100;48.700;9.316;2023-06-22T01:43:30;97764.09999999999;;;22.38;100
17950;BME280;9100;48.700;9.316;2023-06-22T01:44:30;97756.5;;;22.37;100
17950;BME280;9100;48.700;9.316;2023-06-22T01:45:30;97748.2;;;22.35;100
17950;BME280;9100;48.700;9.316;2023-06-22T01:46:07;97746.6;;;22.34;100
17950;BME280;9100;48.700;9.316;2023-06-22T01:46:30;97738.8;;;22.34;100
17950;BME280;9100;48.700;9.316;2023-06-22T01:47:30;97746.6;;;22.34;100
17950;BME280;9100;48.700;9.316;2023-06-22T01:48:30;97748.40000000001;;;22.33;100
17950;BME280;9100;48.700;9.316;2023-06-22T01:49:30;97749.2;;;22.34;100
17950;BME280;9100;48.700;9.316;2023-06-22T01:50:30;97757.8;;;22.34;100
17950;BME280;9100;48.700;9.316;2023-06-22T01:51:07;97757.8;;;22.34;100
17950;BME280;9100;48.700;9.316;2023-06-22T01:51:30;97763.8;;;22.35;100
17950;BME280;9100;48.700;9.316;2023-06-22T01:52:30;97764.3;;;22.37;100
17950;BME280;9100;48.700;9.316;2023-06-22T01:53:30;97767.7;;;22.37;100
17950;BME280;9100;48.700;9.316;2023-06-22T01:54:30;97763.3;;;22.38;100
17950;BME280;9100;48.700;9.316;2023-06-22T01:55:30;97764.9;;;22.39;100
17950;BME280;9100;48.700;9.316;2023-06-22T01:56:07;97759.90000000001;;;22.37;100
17950;BME280;9100;48.700;9.316;2023-06-22T01:56:30;97755.5;;;22.38;100
17950;BME280;9100;48.700;9.316;2023-06-22T01:57:30;97750.3;;;22.38;100
17950;BME280;9100;48.700;9.316;2023-06-22T01:58:30;97755.5;;;22.38;100
17950;BME280;9100;48.700;9.316;2023-06-22T01:59:31;97758.90000000001;;;22.38;100
17950;BME280;9100;48.700;9.316;2023-06-22T02:00:31;97756.5;;;22.37;100
17950;BME280;9100;48.700;9.316;2023-06-22T02:01:09;97758.6;;;22.35;100
17950;BME280;9100;48.700;9.316;2023-06-22T02:01:31;97759.40000000001;;;22.35;100
17950;BME280;9100;48.700;9.316;2023-06-22T02:02:32;97768;;;22.36;100
17950;BME280;9100;48.700;9.316;2023-06-22T02:03:31;97770.8;;;22.34;100
17950;BME280;9100;48.700;9.316;2023-06-22T02:04:32;97771.1;;;22.33;100
17950;BME280;9100;48.700;9.316;2023-06-22T02:05:31;97775.5;;;22.32;100
17950;BME280;9100;48.700;9.316;2023-06-22T02:06:10;97775.8;;;22.31;100
17950;BME280;9100;48.700;9.316;2023-06-22T02:06:31;97769.5;;;22.32;100
17950;BME280;9100;48.700;9.316;2023-06-22T02:07:31;97772.1;;;22.32;100
17950;BME280;9100;48.700;9.316;2023-06-22T02:08:30;97764.3;;;22.32;100
17950;BME280;9100;48.700;9.316;2023-06-22T02:09:30;97755.9;;;22.3;100
17950;BME280;9100;48.700;9.316;2023-06-22T02:10:30;97753.59999999999;;;22.28;100
17950;BME280;9100;48.700;9.316;2023-06-22T02:11:08;97749.7;;;22.26;100
17950;BME280;9100;48.700;9.316;2023-06-22T02:11:30;97750.7;;;22.24;100
17950;BME280;9100;48.700;9.316;2023-06-22T02:12:30;97745.8;;;22.23;100
17950;BME280;9100;48.700;9.316;2023-06-22T02:13:30;97753.8;;;22.21;100
17950;BME280;9100;48.700;9.316;2023-06-22T02:14:30;97750.7;;;22.19;100
17950;BME280;9100;48.700;9.316;2023-06-22T02:15:30;97758;;;22.17;100
17950;BME280;9100;48.700;9.316;2023-06-22T02:16:08;97760.79999999999;;;22.16;100
17950;BME280;9100;48.700;9.316;2023-06-22T02:16:30;97766.8;;;22.16;100
17950;BME280;9100;48.700;9.316;2023-06-22T02:17:30;97774.59999999999;;;22.16;100
17950;BME280;9100;48.700;9.316;2023-06-22T02:18:30;97768.4;;;22.17;100
17950;BME280;9100;48.700;9.316;2023-06-22T02:19:30;97769.4;;;22.16;100
17950;BME280;9100;48.700;9.316;2023-06-22T02:20:30;97765.20000000001;;;22.15;100
17950;BME280;9100;48.700;9.316;2023-06-22T02:21:07;97768.9;;;22.14;100
17950;BME280;9100;48.700;9.316;2023-06-22T02:21:30;97765.20000000001;;;22.15;100
17950;BME280;9100;48.700;9.316;2023-06-22T02:22:30;97759.2;;;22.15;100
17950;BME280;9100;48.700;9.316;2023-06-22T02:23:30;97765.20000000001;;;22.15;100
17950;BME280;9100;48.700;9.316;2023-06-22T02:24:30;97761.3;;;22.13;100
17950;BME280;9100;48.700;9.316;2023-06-22T02:25:30;97769.6;;;22.1;100
17950;BME280;9100;48.700;9.316;2023-06-22T02:26:07;97769.9;;;22.08;100
17950;BME280;9100;48.700;9.316;2023-06-22T02:26:30;97767.3;;;22.08;100
17950;BME280;9100;48.700;9.316;2023-06-22T02:27:30;97763.09999999999;;;22.07;100
17950;BME280;9100;48.700;9.316;2023-06-22T02:28:30;97766.7;;;22.06;100
17950;BME280;9100;48.700;9.316;2023-06-22T02:29:30;97767;;;22.05;100
17950;BME280;9100;48.700;9.316;2023-06-22T02:30:30;97757.6;;;22.04;100
17950;BME280;9100;48.700;9.316;2023-06-22T02:31:07;97762.8;;;22.04;100
17950;BME280;9100;48.700;9.316;2023-06-22T02:31:30;97762.8;;;22.04;100
17950;BME280;9100;48.700;9.316;2023-06-22T02:32:30;97766.2;;;22.04;100
17950;BME280;9100;48.700;9.316;2023-06-22T02:33:30;97767.2;;;22.03;100
17950;BME280;9100;48.700;9.316;2023-06-22T02:34:31;97759.7;;;22.02;100
17950;BME280;9100;48.700;9.316;2023-06-22T02:35:30;97757.3;;;22;100
17950;BME280;9100;48.700;9.316;2023-06-22T02:36:07;97761.5;;;22.01;100
17950;BME280;9100;48.700;9.316;2023-06-22T02:36:30;97761.7;;;22;100
17950;BME280;9100;48.700;9.316;2023-06-22T02:37:30;97755;;;21.99;100
17950;BME280;9100;48.700;9.316;2023-06-22T02:38:30;97758.8;;;21.96;100
17950;BME280;9100;48.700;9.316;2023-06-22T02:39:30;97752.59999999999;;;21.97;100
17950;BME280;9100;48.700;9.316;2023-06-22T02:40:30;97758.1;;;21.96;100
17950;BME280;9100;48.700;9.316;2023-06-22T02:41:30;97756.2;;;21.96;100
17950;BME280;9100;48.700;9.316;2023-06-22T02:42:30;97761.40000000001;;;21.96;100
17950;BME280;9100;48.700;9.316;2023-06-22T02:43:30;97764;;;21.96;100
17950;BME280;9100;48.700;9.316;2023-06-22T02:44:30;97764;;;21.96;100
17950;BME280;9100;48.700;9.316;2023-06-22T02:45:30;97765.9;;;21.96;100
17950;BME280;9100;48.700;9.316;2023-06-22T02:46:07;97750.5;;;21.94;100
17950;BME280;9100;48.700;9.316;2023-06-22T02:46:30;97759.1;;;21.95;100
17950;BME280;9100;48.700;9.316;2023-06-22T02:47:30;97753.09999999999;;;21.94;100
17950;BME280;9100;48.700;9.316;2023-06-22T02:48:30;97752.59999999999;;;21.92;100
17950;BME280;9100;48.700;9.316;2023-06-22T02:49:30;97745;;;21.91;100
17950;BME280;9100;48.700;9.316;2023-06-22T02:50:30;97741.09999999999;;;21.88;100
17950;BME280;9100;48.700;9.316;2023-06-22T02:51:08;97746.5;;;21.87;100
17950;BME280;9100;48.700;9.316;2023-06-22T02:51:32;97735.29999999999;;;21.86;100
17950;BME280;9100;48.700;9.316;2023-06-22T02:52:30;97735.29999999999;;;21.86;100
17950;BME280;9100;48.700;9.316;2023-06-22T02:53:30;97738.2;;;21.85;100
17950;BME280;9100;48.700;9.316;2023-06-22T02:54:30;97736.3;;;21.85;100
17950;BME280;9100;48.700;9.316;2023-06-22T02:55:30;97744.1;;;21.85;100
17950;BME280;9100;48.700;9.316;2023-06-22T02:56:07;97744.1;;;21.85;100
17950;BME280;9100;48.700;9.316;2023-06-22T02:56:30;97738.9;;;21.85;100
17950;BME280;9100;48.700;9.316;2023-06-22T02:57:30;97736.3;;;21.85;100
17950;BME280;9100;48.700;9.316;2023-06-22T02:58:30;97740.5;;;21.86;100
17950;BME280;9100;48.700;9.316;2023-06-22T02:59:30;97734;;;21.84;100
17950;BME280;9100;48.700;9.316;2023-06-22T03:00:30;97734.2;;;21.82;100
17950;BME280;9100;48.700;9.316;2023-06-22T03:01:07;97730.8;;;21.82;100
17950;BME280;9100;48.700;9.316;2023-06-22T03:01:30;97729.3;;;21.81;100
17950;BME280;9100;48.700;9.316;2023-06-22T03:02:30;97725.9;;;21.8;100
17950;BME280;9100;48.700;9.316;2023-06-22T03:03:30;97725.9;;;21.8;100
17950;BME280;9100;48.700;9.316;2023-06-22T03:04:30;97719.9;;;21.8;100
17950;BME280;9100;48.700;9.316;2023-06-22T03:05:30;97721.7;;;21.79;100
17950;BME280;9100;48.700;9.316;2023-06-22T03:06:07;97721.2;;;21.77;100
17950;BME280;9100;48.700;9.316;2023-06-22T03:06:30;97721.2;;;21.77;100
17950;BME280;9100;48.700;9.316;2023-06-22T03:07:30;97722.2;;;21.76;100
17950;BME280;9100;48.700;9.316;2023-06-22T03:08:30;97720.6;;;21.75;100
17950;BME280;9100;48.700;9.316;2023-06-22T03:09:30;97726.59999999999;;;21.75;100
17950;BME280;9100;48.700;9.316;2023-06-22T03:10:30;97725.8;;;21.75;100
17950;BME280;9100;48.700;9.316;2023-06-22T03:11:08;97727.59999999999;;;21.74;100
17950;BME280;9100;48.700;9.316;2023-06-22T03:11:30;97728.2;;;21.76;100
17950;BME280;9100;48.700;9.316;2023-06-22T03:12:30;97731.6;;;21.77;100
17950;BME280;9100;48.700;9.316;2023-06-22T03:13:30;97724.3;;;21.79;100
17950;BME280;9100;48.700;9.316;2023-06-22T03:14:30;97725.9;;;21.8;100
17950;BME280;9100;48.700;9.316;2023-06-22T03:15:30;97723.5;;;21.78;100
17950;BME280;9100;48.700;9.316;2023-06-22T03:16:07;97724.3;;;21.79;100
17950;BME280;9100;48.700;9.316;2023-06-22T03:16:30;97718.1;;;21.8;100
17950;BME280;9100;48.700;9.316;2023-06-22T03:17:30;97712.09999999999;;;21.8;100
17950;BME280;9100;48.700;9.316;2023-06-22T03:18:30;97713.9;;;21.79;100
17950;BME280;9100;48.700;9.316;2023-06-22T03:19:30;97711.5;;;21.77;100
17950;BME280;9100;48.700;9.316;2023-06-22T03:20:30;97712.59999999999;;;21.76;100
17950;BME280;9100;48.700;9.316;2023-06-22T03:21:07;97703.4;;;21.74;100
17950;BME280;9100;48.700;9.316;2023-06-22T03:21:30;97707.6;;;21.75;100
17950;BME280;9100;48.700;9.316;2023-06-22T03:22:30;97716.5;;;21.74;100
17950;BME280;9100;48.700;9.316;2023-06-22T03:23:30;97710.2;;;21.7;100
17950;BME280;9100;48.700;9.316;2023-06-22T03:24:30;97713.8;;;21.69;100
17950;BME280;9100;48.700;9.316;2023-06-22T03:25:30;97716.9;;;21.66;100
17950;BME280;9100;48.700;9.316;2023-06-22T03:26:08;97711.2;;;21.64;100
17950;BME280;9100;48.700;9.316;2023-06-22T03:26:30;97712.2;;;21.63;100
17950;BME280;9100;48.700;9.316;2023-06-22T03:27:30;97715.8;;;21.62;100
17950;BME280;9100;48.700;9.316;2023-06-22T03:28:30;97715.3;;;21.6;100
17950;BME280;9100;48.700;9.316;2023-06-22T03:29:30;97725.2;;;21.58;100
17950;BME280;9100;48.700;9.316;2023-06-22T03:30:30;97717.9;;;21.55;100
17950;BME280;9100;48.700;9.316;2023-06-22T03:31:08;97713.09999999999;;;21.52;100
17950;BME280;9100;48.700;9.316;2023-06-22T03:31:30;97706.4;;;21.51;100
17950;BME280;9100;48.700;9.316;2023-06-22T03:32:30;97711.8;;;21.49;100
17950;BME280;9100;48.700;9.316;2023-06-22T03:33:30;97710.5;;;21.47;100
17950;BME280;9100;48.700;9.316;2023-06-22T03:34:30;97721.90000000001;;;21.46;100
17950;BME280;9100;48.700;9.316;2023-06-22T03:35:30;97714.59999999999;;;21.43;100
17950;BME280;9100;48.700;9.316;2023-06-22T03:36:07;97716.7;;;21.41;100
17950;BME280;9100;48.700;9.316;2023-06-22T03:36:30;97708.90000000001;;;21.41;100
17950;BME280;9100;48.700;9.316;2023-06-22T03:37:30;97709.90000000001;;;21.4;100
17950;BME280;9100;48.700;9.316;2023-06-22T03:38:30;97708.6;;;21.37;100
17950;BME280;9100;48.700;9.316;2023-06-22T03:39:31;97713.8;;;21.37;100
17950;BME280;9100;48.700;9.316;2023-06-22T03:40:30;97710.90000000001;;;21.34;100
17950;BME280;9100;48.700;9.316;2023-06-22T03:41:07;97710.1;;;21.33;100
17950;BME280;9100;48.700;9.316;2023-06-22T03:41:30;97709.3;;;21.33;100
17950;BME280;9100;48.700;9.316;2023-06-22T03:42:30;97707.8;;;21.32;100
17950;BME280;9100;48.700;9.316;2023-06-22T03:43:30;97714;;;21.31;100
17950;BME280;9100;48.700;9.316;2023-06-22T03:44:30;97708.3;;;21.28;100
17950;BME280;9100;48.700;9.316;2023-06-22T03:45:30;97703.3;;;21.27;100
17950;BME280;9100;48.700;9.316;2023-06-22T03:46:07;97709.3;;;21.27;100
17950;BME280;9100;48.700;9.316;2023-06-22T03:46:30;97705.1;;;21.26;100
17950;BME280;9100;48.700;9.316;2023-06-22T03:47:30;97704.3;;;21.26;100
17950;BME280;9100;48.700;9.316;2023-06-22T03:48:30;97709.5;;;21.26;100
17950;BME280;9100;48.700;9.316;2023-06-22T03:49:30;97708.7;;;21.25;100
17950;BME280;9100;48.700;9.316;2023-06-22T03:50:30;97707.7;;;21.26;100
17950;BME280;9100;48.700;9.316;2023-06-22T03:51:07;97707.7;;;21.26;100
17950;BME280;9100;48.700;9.316;2023-06-22T03:51:30;97704.1;;;21.27;100
17950;BME280;9100;48.700;9.316;2023-06-22T03:52:30;97703.09999999999;;;21.28;100
17950;BME280;9100;48.700;9.316;2023-06-22T03:53:30;97703.59999999999;;;21.31;100
17950;BME280;9100;48.700;9.316;2023-06-22T03:54:30;97709.3;;;21.33;100
17950;BME280;9100;48.700;9.316;2023-06-22T03:55:30;97713.5;;;21.34;100
17950;BME280;9100;48.700;9.316;2023-06-22T03:56:07;97696.3;;;21.33;100
17950;BME280;9100;48.700;9.316;2023-06-22T03:56:30;97708.3;;;21.34;100
17950;BME280;9100;48.700;9.316;2023-06-22T03:57:30;97707.3;;;21.35;100
17950;BME280;9100;48.700;9.316;2023-06-22T03:58:30;97705.7;;;21.34;100
17950;BME280;9100;48.700;9.316;2023-06-22T03:59:30;97706.5;;;21.34;100
17950;BME280;9100;48.700;9.316;2023-06-22T04:00:30;97711.7;;;21.34;100
17950;BME280;9100;48.700;9.316;2023-06-22T04:01:07;97702.09999999999;;;21.35;100
17950;BME280;9100;48.700;9.316;2023-06-22T04:01:30;97710.90000000001;;;21.34;100
17950;BME280;9100;48.700;9.316;2023-06-22T04:02:30;97705.7;;;21.34;100
17950;BME280;9100;48.700;9.316;2023-06-22T04:03:30;97702.09999999999;;;21.35;100
17950;BME280;9100;48.700;9.316;2023-06-22T04:04:30;97701.8;;;21.36;100
17950;BME280;9100;48.700;9.316;2023-06-22T04:05:30;97702.9;;;21.35;100
17950;BME280;9100;48.700;9.316;2023-06-22T04:06:08;97697.7;;;21.35;100
17950;BME280;9100;48.700;9.316;2023-06-22T04:06:30;97700.3;;;21.35;100
17950;BME280;9100;48.700;9.316;2023-06-22T04:07:30;97698.40000000001;;;21.36;100
17950;BME280;9100;48.700;9.316;2023-06-22T04:08:30;97701;;;21.36;100
17950;BME280;9100;48.700;9.316;2023-06-22T04:09:30;97705.7;;;21.34;100
17950;BME280;9100;48.700;9.316;2023-06-22T04:10:30;97701.3;;;21.34;100
17950;BME280;9100;48.700;9.316;2023-06-22T04:11:07;97700.5;;;21.34;100
17950;BME280;9100;48.700;9.316;2023-06-22T04:11:30;97703.59999999999;;;21.36;100
17950;BME280;9100;48.700;9.316;2023-06-22T04:12:30;97706;;;21.37;100
17950;BME280;9100;48.700;9.316;2023-06-22T04:13:30;97703.09999999999;;;21.39;100
17950;BME280;9100;48.700;9.316;2023-06-22T04:14:30;97701.3;;;21.39;100
17950;BME280;9100;48.700;9.316;2023-06-22T04:15:30;97697.90000000001;;;21.39;100
17950;BME280;9100;48.700;9.316;2023-06-22T04:16:07;97696.90000000001;;;21.4;100
17950;BME280;9100;48.700;9.316;2023-06-22T04:16:30;97701.9;;;21.41;100
17950;BME280;9100;48.700;9.316;2023-06-22T04:17:30;97693;;;21.42;100
17950;BME280;9100;48.700;9.316;2023-06-22T04:18:30;97697.2;;;21.43;100
17950;BME280;9100;48.700;9.316;2023-06-22T04:19:30;97690.20000000001;;;21.44;100
17950;BME280;9100;48.700;9.316;2023-06-22T04:20:30;97683.4;;;21.43;100
17950;BME280;9100;48.700;9.316;2023-06-22T04:21:08;97690.20000000001;;;21.44;100
17950;BME280;9100;48.700;9.316;2023-06-22T04:21:30;97685;;;21.44;100
17950;BME280;9100;48.700;9.316;2023-06-22T04:22:30;97684.7;;;21.45;100
17950;BME280;9100;48.700;9.316;2023-06-22T04:23:30;97688.09999999999;;;21.46;100
17950;BME280;9100;48.700;9.316;2023-06-22T04:24:30;97690.5;;;21.47;100
17950;BME280;9100;48.700;9.316;2023-06-22T04:25:30;97683.4;;;21.48;100
17950;BME280;9100;48.700;9.316;2023-06-22T04:26:07;97694.4;;;21.5;100
17950;BME280;9100;48.700;9.316;2023-06-22T04:26:30;97685.6;;;21.51;100
17950;BME280;9100;48.700;9.316;2023-06-22T04:27:30;97686.90000000001;;;21.53;100
17950;BME280;9100;48.700;9.316;2023-06-22T04:28:30;97688.2;;;21.56;100
17950;BME280;9100;48.700;9.316;2023-06-22T04:29:30;97683;;;21.56;100
17950;BME280;9100;48.700;9.316;2023-06-22T04:30:32;97680.9;;;21.58;100
17950;BME280;9100;48.700;9.316;2023-06-22T04:31:07;97680.2;;;21.57;100
17950;BME280;9100;48.700;9.316;2023-06-22T04:31:30;97690.09999999999;;;21.6;100
17950;BME280;9100;48.700;9.316;2023-06-22T04:32:30;97682.3;;;21.6;100
17950;BME280;9100;48.700;9.316;2023-06-22T04:33:30;97689;;;21.61;100